Time;durP1;ratioP1;P1;durP2;ratioP2;P2;SDS_P1;SDS_P2;PMS_P1;PMS_P2;Temp;Humidity;BMP_temperature;BMP_pressure;BME280_temperature;BME280_humidity;BME280_pressure;Samples;Min_cycle;Max_cycle;Signal;HPM_P1;HPM_P2
2022/12/19 00:01:59;;;;;;;155.00;63.50;;;-8.40;99.90;;;;;;2603069;54;20061;31
2022/12/19 00:04:34;;;;;;;152.23;62.88;;;-8.40;99.90;;;;;;2603524;54;20860;31
2022/12/19 00:07:09;;;;;;;155.45;60.75;;;-8.40;99.90;;;;;;2603463;54;20941;31
2022/12/19 00:09:46;;;;;;;165.65;61.63;;;-8.40;99.90;;;;;;2603124;54;20913;31
2022/12/19 00:12:21;;;;;;;147.85;60.10;;;-8.50;99.90;;;;;;2701222;39;20615;31
2022/12/19 00:14:56;;;;;;;156.53;61.90;;;-8.40;99.90;;;;;;2603454;54;20852;31
2022/12/19 00:17:32;;;;;;;166.02;64.15;;;-8.50;99.90;;;;;;2603216;54;20791;31
2022/12/19 00:20:13;;;;;;;169.52;66.18;;;-8.50;99.90;;;;;;2603347;54;19950;31
2022/12/19 00:22:53;;;;;;;177.30;69.90;;;-8.50;99.90;;;;;;2602584;54;20093;31
2022/12/19 00:25:33;;;;;;;165.25;63.30;;;-8.60;99.90;;;;;;2701702;39;20504;31
2022/12/19 00:28:10;;;;;;;162.40;63.55;;;-8.60;99.90;;;;;;2603260;54;20594;31
2022/12/19 00:30:45;;;;;;;172.63;63.75;;;-8.50;99.90;;;;;;2603246;54;20865;31
2022/12/19 00:33:20;;;;;;;166.48;66.75;;;-8.60;99.90;;;;;;2603305;54;20860;31
2022/12/19 00:35:59;;;;;;;167.05;66.95;;;-8.60;99.90;;;;;;2603355;54;20830;31
2022/12/19 00:38:34;;;;;;;178.25;68.15;;;-8.60;99.90;;;;;;2603355;54;20586;31
2022/12/19 00:41:14;;;;;;;173.33;69.43;;;-8.60;99.90;;;;;;2609392;39;22458;31
2022/12/19 00:43:53;;;;;;;175.35;67.75;;;-8.60;99.90;;;;;;2603084;54;20052;31
2022/12/19 00:46:28;;;;;;;161.80;66.75;;;-8.60;99.90;;;;;;2603273;54;20838;31
2022/12/19 00:49:03;;;;;;;172.82;65.28;;;-8.60;99.90;;;;;;2603119;54;20144;31
2022/12/19 00:51:36;;;;;;;170.07;67.47;;;-8.50;99.90;;;;;;2719944;39;22541;31
2022/12/19 00:54:15;;;;;;;178.35;69.75;;;-8.60;99.90;;;;;;2603091;54;19934;31
2022/12/19 00:56:53;;;;;;;178.18;68.00;;;-8.60;99.90;;;;;;2602962;54;20847;31
2022/12/19 00:59:30;;;;;;;171.15;65.68;;;-8.60;99.90;;;;;;2603049;54;20048;31
2022/12/19 01:02:04;;;;;;;170.85;68.40;;;-8.60;99.90;;;;;;2602877;54;20926;31
2022/12/19 01:04:39;;;;;;;182.98;67.68;;;-8.60;99.90;;;;;;2603271;54;20580;31
2022/12/19 01:07:18;;;;;;;177.80;66.68;;;-8.60;99.90;;;;;;2701693;39;20549;31
2022/12/19 01:09:54;;;;;;;182.55;72.80;;;-8.60;99.90;;;;;;2603168;54;20045;31
2022/12/19 01:15:20;;;;;;;188.20;71.70;;;-8.70;99.90;;;;;;2602920;54;20029;31
2022/12/19 01:17:55;;;;;;;;;;;-8.70;99.90;;;;;;2603402;54;20071;31
2022/12/19 01:20:29;;;;;;;176.30;69.25;;;-8.70;99.90;;;;;;2603009;54;19962;31
2022/12/19 01:23:05;;;;;;;195.20;72.53;;;-8.70;99.90;;;;;;2603240;54;20046;31
2022/12/19 01:25:41;;;;;;;178.40;71.50;;;-8.70;99.90;;;;;;2603083;54;20026;31
2022/12/19 01:28:22;;;;;;;182.20;70.67;;;-8.70;99.90;;;;;;2602979;54;20958;31
2022/12/19 01:30:57;;;;;;;184.60;72.43;;;-8.80;99.90;;;;;;2603139;54;20827;31
2022/12/19 01:33:35;;;;;;;197.83;73.90;;;-8.80;99.90;;;;;;2602986;54;20050;31
2022/12/19 01:36:12;;;;;;;182.20;72.25;;;-8.80;99.90;;;;;;2602565;54;20022;31
2022/12/19 01:38:46;;;;;;;176.15;67.90;;;-8.80;99.90;;;;;;2602969;54;20121;31
2022/12/19 01:41:24;;;;;;;184.13;69.78;;;-8.80;99.90;;;;;;2602742;54;20026;31
2022/12/19 01:43:57;;;;;;;181.00;73.47;;;-8.80;99.90;;;;;;2701744;39;21119;31
2022/12/19 01:46:36;;;;;;;191.45;73.22;;;-8.80;99.90;;;;;;2603181;54;20274;31
2022/12/19 01:49:17;;;;;;;185.10;72.25;;;-8.80;99.90;;;;;;2602902;54;20034;31
2022/12/19 01:51:58;;;;;;;180.75;69.40;;;-8.80;99.90;;;;;;2603187;54;20030;31
2022/12/19 01:54:38;;;;;;;165.88;69.43;;;-8.80;99.90;;;;;;2602940;54;20033;31
2022/12/19 01:57:14;;;;;;;179.97;71.37;;;-8.80;99.90;;;;;;2603056;54;20902;31
2022/12/19 01:59:50;;;;;;;180.70;70.38;;;-8.80;99.90;;;;;;2621592;46;20046;31
2022/12/19 02:02:31;;;;;;;167.13;62.38;;;-8.80;99.90;;;;;;2621698;47;20774;31
2022/12/19 02:05:06;;;;;;;172.13;67.13;;;-8.80;99.90;;;;;;2602942;54;20145;31
2022/12/19 02:07:39;;;;;;;173.20;68.80;;;-8.80;99.90;;;;;;2614619;31;22568;31
2022/12/19 02:10:14;;;;;;;179.35;72.90;;;-8.80;99.90;;;;;;2602799;54;20377;31
2022/12/19 02:12:48;;;;;;;177.02;68.72;;;-8.80;99.90;;;;;;2603208;54;20022;31
2022/12/19 02:15:23;;;;;;;193.90;71.15;;;-8.80;99.90;;;;;;2602994;54;20022;31
2022/12/19 02:18:06;;;;;;;171.63;65.93;;;-8.90;99.90;;;;;;2602764;54;19954;31
2022/12/19 02:20:52;;;;;;;182.70;68.40;;;-8.80;99.90;;;;;;2621489;47;20966;31
2022/12/19 02:24:04;;;;;;;170.75;65.68;;;-8.80;99.90;;;;;;2602732;54;21010;31
2022/12/19 02:26:51;;;;;;;181.75;67.68;;;-8.80;99.90;;;;;;2609221;39;22363;31
2022/12/19 02:29:48;;;;;;;184.20;69.15;;;-8.80;99.90;;;;;;2602965;54;20893;31
2022/12/19 02:32:25;;;;;;;;;;;-8.80;99.90;;;;;;2602917;54;20279;31
2022/12/19 02:35:07;;;;;;;159.00;63.00;;;-8.80;99.90;;;;;;2602734;54;19939;31
2022/12/19 02:37:46;;;;;;;175.25;67.65;;;-8.80;99.90;;;;;;2602888;54;20121;31
2022/12/19 02:40:28;;;;;;;157.55;63.13;;;-8.80;99.90;;;;;;2602683;54;20029;31
2022/12/19 02:43:04;;;;;;;180.90;70.28;;;-8.80;99.90;;;;;;2621363;47;20922;31
2022/12/19 02:45:40;;;;;;;162.68;66.32;;;-8.80;99.90;;;;;;2602665;54;20026;31
2022/12/19 02:48:14;;;;;;;171.30;69.32;;;-8.80;99.90;;;;;;2602647;54;20926;31
2022/12/19 02:50:56;;;;;;;170.77;67.25;;;-8.80;99.90;;;;;;2700245;39;20692;31
2022/12/19 02:53:32;;;;;;;161.70;63.58;;;-8.80;99.90;;;;;;2602981;54;20597;31
2022/12/19 02:56:27;;;;;;;174.25;63.20;;;-8.80;99.90;;;;;;2603461;54;20034;31
2022/12/19 02:59:16;;;;;;;159.27;66.37;;;-8.70;99.90;;;;;;2603544;54;20042;31
2022/12/19 03:01:53;;;;;;;162.43;64.40;;;-8.70;99.90;;;;;;2603595;54;20027;31
2022/12/19 03:04:35;;;;;;;163.65;63.20;;;-8.70;99.90;;;;;;2603558;54;20671;31
2022/12/19 03:07:18;;;;;;;155.38;64.30;;;-8.70;99.90;;;;;;2603452;54;20127;31
2022/12/19 03:09:54;;;;;;;141.60;57.65;;;-8.80;99.90;;;;;;2702126;39;20555;31
2022/12/19 03:12:28;;;;;;;162.77;60.00;;;-8.80;99.90;;;;;;2702153;39;22410;31
2022/12/19 03:15:03;;;;;;;161.18;61.63;;;-8.80;99.90;;;;;;2603656;54;21375;31
2022/12/19 03:17:38;;;;;;;174.50;67.20;;;-8.80;99.90;;;;;;2602690;54;20885;31
2022/12/19 03:20:21;;;;;;;154.05;61.58;;;-8.70;99.90;;;;;;2773371;31;20553;31
2022/12/19 03:23:00;;;;;;;154.40;62.70;;;-8.80;99.90;;;;;;2603555;54;20781;31
2022/12/19 03:25:34;;;;;;;157.77;62.70;;;-8.70;99.90;;;;;;2603538;54;20030;31
2022/12/19 03:28:13;;;;;;;138.32;58.55;;;-8.70;99.90;;;;;;2603649;54;20026;31
2022/12/19 03:30:49;;;;;;;158.85;61.00;;;-8.70;99.90;;;;;;2621590;46;20833;31
2022/12/19 03:33:24;;;;;;;154.80;61.45;;;-8.70;99.90;;;;;;2603210;54;20044;31
2022/12/19 03:36:00;;;;;;;139.70;57.75;;;-8.70;99.90;;;;;;2602680;54;20867;31
2022/12/19 03:38:39;;;;;;;157.25;60.08;;;-8.60;99.90;;;;;;2603342;54;20033;31
2022/12/19 03:43:07;;;;;;;141.63;59.87;;;-8.60;99.90;;;;;;2603251;54;20826;31
2022/12/19 03:44:09;;;;;;;160.18;60.83;;;-8.60;99.90;;;;;;2603213;54;20278;31
2022/12/19 03:46:46;;;;;;;160.60;63.13;;;-8.50;99.90;;;;;;2603441;54;20037;31
2022/12/19 03:49:21;;;;;;;143.77;59.08;;;-8.50;99.90;;;;;;2603684;54;20076;31
2022/12/19 03:51:57;;;;;;;144.55;57.30;;;-8.60;99.90;;;;;;2603151;54;20042;31
2022/12/19 03:54:36;;;;;;;149.80;55.53;;;-8.50;99.90;;;;;;2603263;54;20911;31
2022/12/19 03:57:12;;;;;;;148.17;60.83;;;-8.60;99.90;;;;;;2603280;54;21111;31
2022/12/19 03:59:52;;;;;;;157.82;62.78;;;-8.60;99.90;;;;;;2603394;54;20837;31
2022/12/19 04:02:26;;;;;;;152.90;57.88;;;-8.60;99.90;;;;;;2603475;54;20030;31
2022/12/19 04:05:04;;;;;;;145.40;57.57;;;-8.60;99.90;;;;;;2603046;54;20046;31
2022/12/19 04:07:37;;;;;;;;;;;-8.60;99.90;;;;;;2603480;54;20026;31
2022/12/19 04:10:18;;;;;;;141.00;55.50;;;-8.60;99.90;;;;;;2603482;54;20021;31
2022/12/19 04:12:54;;;;;;;145.07;57.10;;;-8.60;99.90;;;;;;2603321;54;20793;31
2022/12/19 04:15:34;;;;;;;151.45;60.15;;;-8.60;99.90;;;;;;2621674;46;20052;31
2022/12/19 04:18:11;;;;;;;149.30;58.00;;;-8.60;99.90;;;;;;2603510;54;20085;31
2022/12/19 04:20:47;;;;;;;135.85;51.63;;;-8.60;99.90;;;;;;2603383;54;20845;31
2022/12/19 04:23:24;;;;;;;145.63;56.80;;;-8.50;99.90;;;;;;2603337;54;20026;31
2022/12/19 04:26:03;;;;;;;139.27;57.60;;;-8.50;99.90;;;;;;2603410;54;21042;31
2022/12/19 04:28:40;;;;;;;134.32;58.35;;;-8.50;99.90;;;;;;2603511;54;20046;31
2022/12/19 04:31:14;;;;;;;146.15;61.83;;;-8.50;99.90;;;;;;2621432;46;20081;31
2022/12/19 04:33:49;;;;;;;127.82;52.42;;;-8.50;99.90;;;;;;2603264;54;20044;31
2022/12/19 04:36:23;;;;;;;137.98;53.55;;;-8.40;99.90;;;;;;2603284;54;20104;31
2022/12/19 04:38:58;;;;;;;144.68;59.17;;;-8.40;99.90;;;;;;2621817;46;20023;31
2022/12/19 04:41:35;;;;;;;156.90;60.33;;;-8.40;99.90;;;;;;2603305;54;20046;31
2022/12/19 04:44:09;;;;;;;149.27;55.72;;;-8.40;99.90;;;;;;2701726;39;22391;31
2022/12/19 04:46:44;;;;;;;141.43;56.63;;;-8.30;99.90;;;;;;2603179;54;20557;31
2022/12/19 04:49:20;;;;;;;137.45;55.15;;;-8.30;99.90;;;;;;2603293;54;20026;31
2022/12/19 04:51:55;;;;;;;144.60;57.85;;;-8.30;99.90;;;;;;2603299;54;20077;31
2022/12/19 04:54:31;;;;;;;134.83;53.83;;;-8.30;99.90;;;;;;2603349;54;20028;31
2022/12/19 04:57:08;;;;;;;144.57;53.40;;;-8.30;99.90;;;;;;2603229;54;20604;31
2022/12/19 04:59:43;;;;;;;131.80;51.55;;;-8.30;99.90;;;;;;2603181;54;20069;31
2022/12/19 05:02:18;;;;;;;144.00;55.00;;;-8.30;99.90;;;;;;2700759;39;21515;31
2022/12/19 05:04:54;;;;;;;147.17;54.60;;;-8.30;99.90;;;;;;2773011;31;20609;31
2022/12/19 05:07:30;;;;;;;138.10;54.05;;;-8.30;99.90;;;;;;2603032;54;20061;31
2022/12/19 05:10:08;;;;;;;137.43;53.03;;;-8.30;99.90;;;;;;2603437;54;20026;31
2022/12/19 05:12:45;;;;;;;130.93;53.28;;;-8.30;99.90;;;;;;2701705;39;20548;31
2022/12/19 05:15:19;;;;;;;123.72;51.13;;;-8.30;99.90;;;;;;2602980;54;20837;31
2022/12/19 05:17:53;;;;;;;129.13;52.00;;;-8.30;99.90;;;;;;2701782;39;20483;31
2022/12/19 05:20:29;;;;;;;137.00;53.40;;;-8.30;99.90;;;;;;2603189;54;20059;31
2022/12/19 05:23:03;;;;;;;132.43;54.00;;;-8.40;99.90;;;;;;2603115;54;20802;31
2022/12/19 05:25:48;;;;;;;132.35;51.70;;;-8.40;99.90;;;;;;2603043;54;21034;31
2022/12/19 05:28:25;;;;;;;130.23;57.60;;;-8.30;99.90;;;;;;2602980;54;20899;31
2022/12/19 05:31:05;;;;;;;131.32;52.55;;;-8.30;99.90;;;;;;2603055;54;20258;31
2022/12/19 05:33:40;;;;;;;128.25;50.25;;;-8.40;99.90;;;;;;2603115;54;20940;31
2022/12/19 05:36:22;;;;;;;130.18;54.67;;;-8.40;99.90;;;;;;2603394;54;20038;31
2022/12/19 05:39:05;;;;;;;129.88;49.13;;;-8.40;99.90;;;;;;2609601;39;21138;31
2022/12/19 05:41:40;;;;;;;137.80;54.07;;;-8.40;99.90;;;;;;2602975;54;20107;31
2022/12/19 05:44:22;;;;;;;131.85;50.08;;;-8.40;99.90;;;;;;2701387;39;20548;31
2022/12/19 05:46:56;;;;;;;110.00;45.25;;;-8.30;99.90;;;;;;2701509;39;20523;31
2022/12/19 05:49:33;;;;;;;113.07;48.33;;;-8.30;99.90;;;;;;2603070;54;20905;31
2022/12/19 05:52:08;;;;;;;130.13;49.80;;;-8.30;99.90;;;;;;2602970;54;20249;31
2022/12/19 05:54:50;;;;;;;120.97;53.28;;;-8.30;99.90;;;;;;2602988;54;20038;31
2022/12/19 05:57:27;;;;;;;135.85;56.03;;;-8.30;99.90;;;;;;2603066;54;20029;31
2022/12/19 06:00:11;;;;;;;136.03;55.03;;;-8.20;99.90;;;;;;2603045;54;20905;31
2022/12/19 06:05:16;;;;;;;140.10;55.73;;;-8.20;99.90;;;;;;2602555;54;20812;31
2022/12/19 06:07:56;;;;;;;124.30;50.20;;;-8.20;99.90;;;;;;2701103;39;21974;31
2022/12/19 06:10:30;;;;;;;116.53;48.42;;;-8.20;99.90;;;;;;2602784;54;20821;31
2022/12/19 06:13:04;;;;;;;120.57;46.92;;;-8.10;99.90;;;;;;2621489;47;20030;31
2022/12/19 06:15:41;;;;;;;129.00;51.78;;;-8.10;99.90;;;;;;2701117;39;21744;31
2022/12/19 06:18:17;;;;;;;119.70;49.80;;;-8.10;99.90;;;;;;2602845;54;20060;31
2022/12/19 06:21:00;;;;;;;109.25;44.95;;;-8.10;99.90;;;;;;2621507;47;20057;31
2022/12/19 06:23:36;;;;;;;115.78;44.58;;;-8.10;99.90;;;;;;2603068;54;20800;31
2022/12/19 06:26:12;;;;;;;99.47;44.58;;;-8.00;99.90;;;;;;2602755;54;20018;31
2022/12/19 06:28:53;;;;;;;103.32;42.50;;;-8.00;99.90;;;;;;2603667;54;20907;31
2022/12/19 06:31:31;;;;;;;114.95;46.60;;;-7.90;99.90;;;;;;2603678;54;20102;31
2022/12/19 06:34:06;;;;;;;102.82;41.40;;;-7.90;99.90;;;;;;2602973;54;20985;31
2022/12/19 06:36:41;;;;;;;91.80;40.73;;;-7.90;99.90;;;;;;2603817;54;20030;31
2022/12/19 06:39:16;;;;;;;114.45;41.33;;;-7.90;99.90;;;;;;2621845;46;20050;31
2022/12/19 06:44:38;;;;;;;123.40;44.88;;;-7.90;99.90;;;;;;2622359;46;20111;31
2022/12/19 06:47:15;;;;;;;147.38;51.53;;;-7.80;99.90;;;;;;2603703;54;20065;31
2022/12/19 06:49:49;;;;;;;145.80;53.07;;;-7.80;99.90;;;;;;2603460;54;20046;31
2022/12/19 06:52:23;;;;;;;139.38;50.33;;;-7.70;99.90;;;;;;2603899;54;20854;31
2022/12/19 06:54:57;;;;;;;103.47;39.67;;;-7.70;99.90;;;;;;2603645;54;20966;31
2022/12/19 06:57:31;;;;;;;96.03;40.45;;;-7.70;99.90;;;;;;2603663;54;20029;31
2022/12/19 07:00:05;;;;;;;91.63;37.27;;;-7.60;99.90;;;;;;2603553;54;20879;31
2022/12/19 07:02:43;;;;;;;105.47;40.35;;;-7.60;99.90;;;;;;2603477;54;21199;31
2022/12/19 07:05:18;;;;;;;97.68;39.60;;;-7.60;99.90;;;;;;2603693;54;20858;31
2022/12/19 07:07:52;;;;;;;115.95;46.60;;;-7.60;99.90;;;;;;2603708;54;20097;31
2022/12/19 07:10:27;;;;;;;112.60;46.70;;;-7.60;99.90;;;;;;2603651;54;20027;31
2022/12/19 07:13:01;;;;;;;104.03;41.60;;;-7.50;99.90;;;;;;2603699;54;20942;31
2022/12/19 07:15:35;;;;;;;106.40;46.40;;;-7.50;99.90;;;;;;2603492;54;20077;31
2022/12/19 07:18:13;;;;;;;96.00;42.47;;;-7.50;99.90;;;;;;2603374;54;20817;31
2022/12/19 07:20:47;;;;;;;107.18;43.90;;;-7.40;99.90;;;;;;2603529;54;20087;31
2022/12/19 07:23:22;;;;;;;99.00;41.95;;;-7.40;99.90;;;;;;2603648;54;20163;31
2022/12/19 07:25:56;;;;;;;96.95;42.95;;;-7.20;99.90;;;;;;2621673;46;20097;31
2022/12/19 07:28:30;;;;;;;117.47;46.83;;;-6.90;99.90;;;;;;2603613;54;20900;31
2022/12/19 07:31:07;;;;;;;96.55;40.05;;;-6.70;99.90;;;;;;2603520;54;20111;31
2022/12/19 07:33:46;;;;;;;95.78;39.53;;;-6.60;99.90;;;;;;2603483;54;20901;31
2022/12/19 07:36:22;;;;;;;84.35;33.92;;;-6.30;99.90;;;;;;2603299;54;20030;31
2022/12/19 07:38:56;;;;;;;85.72;36.03;;;-6.00;99.90;;;;;;2603447;54;20873;31
2022/12/19 07:41:33;;;;;;;92.97;36.03;;;-5.70;99.90;;;;;;2603555;54;20112;31
2022/12/19 07:44:11;;;;;;;81.05;35.20;;;-5.40;99.90;;;;;;2602786;54;20093;31
2022/12/19 07:46:46;;;;;;;86.82;36.40;;;-5.10;99.90;;;;;;2603452;54;20046;31
2022/12/19 07:49:24;;;;;;;78.90;34.95;;;-4.80;99.90;;;;;;2603365;54;20089;31
2022/12/19 07:51:58;;;;;;;79.43;33.58;;;-4.50;99.90;;;;;;2603409;54;20144;31
2022/12/19 07:54:33;;;;;;;80.25;32.22;;;-4.30;99.90;;;;;;2602773;54;20030;31
2022/12/19 07:57:09;;;;;;;73.05;32.10;;;-4.00;99.90;;;;;;2603400;54;20033;31
2022/12/19 07:59:45;;;;;;;77.60;34.70;;;-3.80;99.90;;;;;;2603331;54;20026;31
2022/12/19 08:02:21;;;;;;;70.28;30.38;;;-3.70;99.90;;;;;;2603451;54;20026;31
2022/12/19 08:05:03;;;;;;;71.78;32.88;;;-3.40;99.90;;;;;;2603445;54;20031;31
2022/12/19 08:07:38;;;;;;;75.18;32.30;;;-3.50;99.90;;;;;;2603364;54;20030;31
2022/12/19 08:10:13;;;;;;;73.22;30.55;;;-3.70;99.90;;;;;;2603564;54;20022;31
2022/12/19 08:12:48;;;;;;;83.10;32.53;;;-3.80;99.90;;;;;;2603562;54;20049;31
2022/12/19 08:15:26;;;;;;;72.47;33.27;;;-3.90;99.90;;;;;;2603316;54;20951;31
2022/12/19 08:18:02;;;;;;;73.05;32.10;;;-3.80;99.90;;;;;;2603400;54;20941;31
2022/12/19 08:20:39;;;;;;;;;;;-3.50;99.90;;;;;;2603684;54;20026;31
2022/12/19 08:23:15;;;;;;;72.53;30.03;;;-3.30;99.90;;;;;;2603349;54;20729;31
2022/12/19 08:26:14;;;;;;;69.93;29.02;;;-3.10;99.90;;;;;;2603239;54;21162;31
2022/12/19 08:28:49;;;;;;;72.00;30.80;;;-2.90;99.90;;;;;;2603158;54;21025;31
2022/12/19 08:31:26;;;;;;;71.25;30.10;;;-2.70;99.90;;;;;;2603418;54;20854;31
2022/12/19 08:34:00;;;;;;;75.80;30.65;;;-2.70;99.90;;;;;;2603184;54;20081;31
2022/12/19 08:36:39;;;;;;;72.75;30.70;;;-2.70;99.90;;;;;;2603403;54;20840;31
2022/12/19 08:39:14;;;;;;;62.28;29.58;;;-2.60;99.90;;;;;;2603672;54;20033;31
2022/12/19 08:41:49;;;;;;;66.78;30.92;;;-2.60;99.90;;;;;;2791531;31;20609;31
2022/12/19 08:44:23;;;;;;;70.35;31.70;;;-2.60;99.90;;;;;;2603499;54;20027;31
2022/12/19 08:47:01;;;;;;;73.03;31.67;;;-2.70;99.90;;;;;;2603269;54;20022;31
2022/12/19 08:49:38;;;;;;;75.32;31.50;;;-2.70;99.90;;;;;;2603304;54;20584;31
2022/12/19 08:52:16;;;;;;;73.35;32.78;;;-2.70;99.90;;;;;;2603207;54;20026;31
2022/12/19 08:54:51;;;;;;;64.60;29.07;;;-2.80;99.90;;;;;;2621322;46;20817;31
2022/12/19 08:57:28;;;;;;;67.45;29.90;;;-2.80;99.90;;;;;;2603057;54;20052;31
2022/12/19 09:00:03;;;;;;;62.72;27.25;;;-2.80;99.90;;;;;;2603333;54;20946;31
2022/12/19 09:02:38;;;;;;;64.85;27.95;;;-2.80;99.90;;;;;;2603206;54;20054;31
2022/12/19 09:05:13;;;;;;;64.40;31.50;;;-2.70;99.90;;;;;;2603193;54;20023;31
2022/12/19 09:08:10;;;;;;;61.65;28.95;;;-2.40;99.90;;;;;;2603312;54;20835;31
2022/12/19 09:10:46;;;;;;;59.95;26.58;;;-2.20;99.90;;;;;;2603174;54;20897;31
2022/12/19 09:13:21;;;;;;;58.70;27.70;;;-2.00;99.90;;;;;;2603124;54;20545;31
2022/12/19 09:16:02;;;;;;;57.28;26.83;;;-1.90;99.90;;;;;;2603260;54;20871;31
2022/12/19 09:18:38;;;;;;;63.60;28.60;;;-1.80;99.90;;;;;;2603144;54;20085;31
2022/12/19 09:21:22;;;;;;;58.40;27.25;;;-1.60;99.90;;;;;;2603287;54;20907;31
2022/12/19 09:24:01;;;;;;;61.22;27.65;;;-1.40;99.90;;;;;;2602920;54;20892;31
2022/12/19 09:26:41;;;;;;;61.15;28.35;;;-1.20;99.90;;;;;;2603310;54;20023;31
2022/12/19 09:29:16;;;;;;;56.20;26.30;;;-1.10;99.90;;;;;;2603292;54;20046;31
2022/12/19 09:31:55;;;;;;;50.05;25.13;;;-0.90;99.90;;;;;;2603449;54;20033;31
2022/12/19 09:34:31;;;;;;;48.67;24.15;;;-0.80;99.90;;;;;;2603255;54;20026;31
2022/12/19 09:37:15;;;;;;;48.50;22.65;;;-0.70;99.90;;;;;;2603144;54;20042;31
2022/12/19 09:39:56;;;;;;;48.70;22.75;;;-0.60;99.90;;;;;;2603172;54;20049;31
2022/12/19 09:42:42;;;;;;;55.85;23.75;;;-0.50;99.90;;;;;;2603222;54;20030;31
2022/12/19 09:45:25;;;;;;;52.05;23.35;;;-0.50;99.90;;;;;;2603137;54;21358;31
2022/12/19 09:48:12;;;;;;;74.15;30.15;;;-0.50;99.90;;;;;;2603325;54;20175;31
2022/12/19 09:50:55;;;;;;;61.67;25.63;;;-0.40;99.90;;;;;;2603168;54;20907;31
2022/12/19 09:53:52;;;;;;;52.90;24.40;;;-0.30;99.90;;;;;;2603093;54;21392;31
2022/12/19 09:56:31;;;;;;;48.25;21.80;;;-0.20;99.90;;;;;;2602983;54;20033;31
2022/12/19 09:59:22;;;;;;;46.63;20.83;;;-0.10;99.90;;;;;;2602971;54;20808;31
2022/12/19 10:02:04;;;;;;;46.78;22.73;;;-0.10;99.90;;;;;;2602873;54;20117;31
2022/12/19 10:04:40;;;;;;;46.55;23.25;;;0.00;99.90;;;;;;2603074;54;20023;31
2022/12/19 10:07:16;;;;;;;40.85;21.88;;;0.10;99.90;;;;;;2603016;54;22467;31
2022/12/19 10:10:15;;;;;;;49.58;22.50;;;0.10;99.90;;;;;;2603005;54;20908;31
2022/12/19 10:13:19;;;;;;;44.67;23.52;;;0.20;99.90;;;;;;2603076;54;20030;31
2022/12/19 10:15:55;;;;;;;44.80;23.80;;;0.30;99.90;;;;;;2603002;54;20022;31
2022/12/19 10:18:39;;;;;;;42.40;19.77;;;0.30;99.90;;;;;;2603160;54;20050;31
2022/12/19 10:21:20;;;;;;;39.23;20.33;;;0.30;99.90;;;;;;2602851;54;20924;31
2022/12/19 10:24:32;;;;;;;38.65;18.45;;;0.20;99.90;;;;;;2602947;54;20254;31
2022/12/19 10:27:13;;;;;;;36.35;18.50;;;0.20;99.90;;;;;;2602918;54;20831;31
2022/12/19 10:30:02;;;;;;;43.95;18.63;;;0.20;99.90;;;;;;2602507;54;20028;31
2022/12/19 10:32:38;;;;;;;40.47;19.55;;;0.10;99.90;;;;;;2602728;54;20033;31
2022/12/19 10:35:16;;;;;;;35.85;18.10;;;0.10;99.90;;;;;;2603171;54;20061;31
2022/12/19 10:37:54;;;;;;;34.28;16.70;;;0.10;99.90;;;;;;2602929;54;20929;31
2022/12/19 10:40:30;;;;;;;37.17;18.73;;;0.10;99.90;;;;;;2603207;54;20113;31
2022/12/19 10:43:12;;;;;;;38.13;16.98;;;0.20;99.90;;;;;;2620865;47;20838;31
2022/12/19 10:46:11;;;;;;;32.22;17.23;;;0.20;99.90;;;;;;2603096;54;20029;31
2022/12/19 10:48:46;;;;;;;33.07;14.90;;;0.30;99.90;;;;;;2603066;54;20027;31
2022/12/19 10:51:25;;;;;;;31.45;14.98;;;0.20;99.90;;;;;;2621201;47;20761;31
2022/12/19 10:54:02;;;;;;;31.63;15.38;;;0.20;99.90;;;;;;2602919;54;20840;31
2022/12/19 10:56:38;;;;;;;35.03;15.70;;;0.20;99.90;;;;;;2602994;54;20034;31
2022/12/19 10:59:17;;;;;;;;;;;0.20;99.90;;;;;;2603347;54;20026;31
2022/12/19 11:01:56;;;;;;;32.00;14.65;;;0.30;99.90;;;;;;2603153;54;20734;31
2022/12/19 11:04:36;;;;;;;28.00;14.85;;;0.30;99.90;;;;;;2602093;54;20057;31
2022/12/19 11:07:20;;;;;;;;;;;0.30;99.90;;;;;;2621380;47;20046;31
2022/12/19 11:09:56;;;;;;;33.17;15.80;;;0.40;99.90;;;;;;2608676;39;22236;31
2022/12/19 11:12:58;;;;;;;36.60;17.70;;;0.50;99.90;;;;;;2602816;54;20545;31
2022/12/19 11:16:04;;;;;;;38.22;17.45;;;0.50;99.90;;;;;;2622194;46;20104;31
2022/12/19 11:19:05;;;;;;;34.47;16.15;;;0.50;99.90;;;;;;2603673;54;20069;31
2022/12/19 11:22:02;;;;;;;34.30;16.83;;;0.50;99.90;;;;;;2603591;54;20827;31
2022/12/19 11:24:59;;;;;;;34.38;15.05;;;0.50;99.90;;;;;;2603810;54;20032;31
2022/12/19 11:27:54;;;;;;;29.55;15.27;;;0.50;99.90;;;;;;2603630;54;20545;31
2022/12/19 11:30:57;;;;;;;34.25;17.20;;;0.60;99.90;;;;;;2603826;54;20866;31
2022/12/19 11:33:58;;;;;;;29.23;14.88;;;0.60;99.90;;;;;;2603612;54;20073;31
2022/12/19 11:36:40;;;;;;;30.17;15.60;;;0.60;99.90;;;;;;2773591;31;20559;31
2022/12/19 11:39:22;;;;;;;31.55;15.90;;;0.60;99.90;;;;;;2603504;54;20888;31
2022/12/19 11:42:02;;;;;;;31.38;16.75;;;0.60;99.90;;;;;;2603510;54;20026;31
2022/12/19 11:44:38;;;;;;;34.00;16.48;;;0.70;99.90;;;;;;2603562;54;20886;31
2022/12/19 11:47:22;;;;;;;33.13;16.00;;;0.70;99.90;;;;;;2603814;54;20835;31
2022/12/19 11:50:00;;;;;;;29.17;14.68;;;0.70;99.90;;;;;;2603521;54;20086;31
2022/12/19 11:52:44;;;;;;;36.20;17.10;;;0.70;99.90;;;;;;2603524;54;20022;31
2022/12/19 11:55:44;;;;;;;29.95;15.45;;;0.70;99.90;;;;;;2603605;54;20038;31
2022/12/19 11:58:18;;;;;;;32.58;16.10;;;0.70;99.90;;;;;;2603144;54;20837;31
2022/12/19 12:00:56;;;;;;;35.28;16.17;;;0.70;99.90;;;;;;2603458;54;20030;31
2022/12/19 12:04:07;;;;;;;30.75;15.90;;;0.80;99.90;;;;;;2603487;54;20031;31
2022/12/19 12:06:46;;;;;;;32.63;16.13;;;0.70;99.90;;;;;;2603556;54;20959;31
2022/12/19 12:09:28;;;;;;;31.52;14.00;;;0.80;99.90;;;;;;2603515;54;20667;31
2022/12/19 12:12:26;;;;;;;29.08;14.80;;;0.80;99.90;;;;;;2603456;54;20980;31
2022/12/19 12:15:44;;;;;;;23.08;12.52;;;0.90;99.90;;;;;;2603459;54;20671;31
2022/12/19 12:18:48;;;;;;;26.87;13.47;;;0.90;99.90;;;;;;2603437;54;20052;31
2022/12/19 12:21:47;;;;;;;29.27;14.03;;;1.00;99.90;;;;;;2621667;46;20250;31
2022/12/19 12:24:49;;;;;;;27.07;13.80;;;1.00;99.90;;;;;;2603530;54;20053;31
2022/12/19 12:27:48;;;;;;;30.20;13.45;;;1.00;99.90;;;;;;2603293;54;20400;31
2022/12/19 12:30:49;;;;;;;29.38;14.07;;;1.00;99.90;;;;;;2603327;54;20888;31
2022/12/19 12:33:54;;;;;;;28.67;13.98;;;1.00;99.90;;;;;;2701821;39;20492;31
2022/12/19 12:36:53;;;;;;;29.30;14.68;;;1.00;99.90;;;;;;2603446;54;20100;31
2022/12/19 12:39:54;;;;;;;29.27;13.15;;;1.00;99.90;;;;;;2603447;54;20026;31
2022/12/19 12:42:35;;;;;;;29.83;15.75;;;1.00;99.90;;;;;;2603416;54;20033;31
2022/12/19 12:45:19;;;;;;;31.60;14.32;;;1.00;99.90;;;;;;2603369;54;20031;31
2022/12/19 12:47:55;;;;;;;26.00;12.90;;;1.00;99.90;;;;;;2603551;54;20876;31
2022/12/19 12:50:29;;;;;;;30.33;15.20;;;1.00;99.90;;;;;;2603340;54;21055;31
2022/12/19 12:53:04;;;;;;;30.52;15.15;;;1.00;99.90;;;;;;2603352;54;20022;31
2022/12/19 12:55:43;;;;;;;31.23;16.73;;;1.00;99.90;;;;;;2603253;54;20911;31
2022/12/19 12:58:48;;;;;;;28.63;15.02;;;1.00;99.90;;;;;;2603280;54;20265;31
2022/12/19 13:01:32;;;;;;;30.90;15.88;;;1.10;99.90;;;;;;2603048;54;20027;31
2022/12/19 13:04:09;;;;;;;32.85;15.60;;;1.10;99.90;;;;;;2603341;54;20027;31
2022/12/19 13:06:46;;;;;;;31.95;15.80;;;1.10;99.90;;;;;;2602718;54;20033;31
2022/12/19 13:09:23;;;;;;;30.70;15.70;;;1.10;99.90;;;;;;2603200;54;20788;31
2022/12/19 13:14:51;;;;;;;32.07;15.87;;;1.10;99.90;;;;;;2603308;54;21025;31
2022/12/19 13:17:47;;;;;;;33.38;15.90;;;1.10;99.90;;;;;;2603082;54;20322;31
2022/12/19 13:20:47;;;;;;;30.85;16.23;;;1.10;99.90;;;;;;2603338;54;20041;31
2022/12/19 13:23:24;;;;;;;28.42;15.43;;;1.10;99.90;;;;;;2603185;54;20037;31
2022/12/19 13:26:02;;;;;;;30.90;16.23;;;1.10;99.90;;;;;;2621768;46;20029;31
2022/12/19 13:28:57;;;;;;;33.00;16.65;;;1.10;99.90;;;;;;2603493;54;20880;31
2022/12/19 13:31:31;;;;;;;29.58;16.15;;;1.10;99.90;;;;;;2603248;54;20042;31
2022/12/19 13:34:13;;;;;;;28.55;15.68;;;1.10;99.90;;;;;;2603145;54;20567;31
2022/12/19 13:36:55;;;;;;;31.88;17.00;;;1.00;99.90;;;;;;2602905;54;20085;31
2022/12/19 13:39:49;;;;;;;32.35;15.73;;;1.00;99.90;;;;;;2701708;39;20477;31
2022/12/19 13:45:51;;;;;;;31.65;17.00;;;1.00;99.90;;;;;;2603230;54;20837;31
2022/12/19 13:48:30;;;;;;;32.03;16.77;;;0.90;99.90;;;;;;2603271;54;20037;31
2022/12/19 13:51:08;;;;;;;29.70;16.30;;;0.90;99.90;;;;;;2602384;54;20529;31
2022/12/19 13:53:44;;;;;;;33.73;18.53;;;0.80;99.90;;;;;;2603326;54;20085;31
2022/12/19 13:56:20;;;;;;;35.80;17.42;;;0.80;99.90;;;;;;2603235;54;20266;31